sensor_id;sensor_type;location;lat;lon;timestamp;P1;durP1;ratioP1;P2;durP2;ratioP2
54807;SDS011;40708;50.364;7.550;2023-11-21T00:00:54;7.93;;;4.40;;
54807;SDS011;40708;50.364;7.550;2023-11-21T00:03:19;7.23;;;4.83;;
54807;SDS011;40708;50.364;7.550;2023-11-21T00:05:44;6.70;;;4.50;;
54807;SDS011;40708;50.364;7.550;2023-11-21T00:08:09;8.13;;;5.70;;
54807;SDS011;40708;50.364;7.550;2023-11-21T00:10:35;6.67;;;5.80;;
54807;SDS011;40708;50.364;7.550;2023-11-21T00:13:03;8.20;;;5.50;;
54807;SDS011;40708;50.364;7.550;2023-11-21T00:15:28;8.55;;;5.50;;
54807;SDS011;40708;50.364;7.550;2023-11-21T00:17:53;9.23;;;6.23;;
54807;SDS011;40708;50.364;7.550;2023-11-21T00:20:18;8.47;;;7.30;;
54807;SDS011;40708;50.364;7.550;2023-11-21T00:22:43;10.97;;;7.60;;
54807;SDS011;40708;50.364;7.550;2023-11-21T00:25:08;13.93;;;9.37;;
54807;SDS011;40708;50.364;7.550;2023-11-21T00:27:34;11.37;;;8.70;;
54807;SDS011;40708;50.364;7.550;2023-11-21T00:30:00;10.50;;;9.37;;
54807;SDS011;40708;50.364;7.550;2023-11-21T00:32:25;14.50;;;10.07;;
54807;SDS011;40708;50.364;7.550;2023-11-21T00:34:50;12.80;;;8.67;;
54807;SDS011;40708;50.364;7.550;2023-11-21T00:37:15;13.87;;;10.57;;
54807;SDS011;40708;50.364;7.550;2023-11-21T00:39:40;13.53;;;11.07;;
54807;SDS011;40708;50.364;7.550;2023-11-21T00:42:06;18.70;;;12.73;;
54807;SDS011;40708;50.364;7.550;2023-11-21T00:44:31;13.77;;;11.43;;
54807;SDS011;40708;50.364;7.550;2023-11-21T00:46:56;16.40;;;12.00;;
54807;SDS011;40708;50.364;7.550;2023-11-21T00:49:21;17.50;;;13.47;;
54807;SDS011;40708;50.364;7.550;2023-11-21T00:51:47;14.17;;;11.00;;
54807;SDS011;40708;50.364;7.550;2023-11-21T00:54:12;16.73;;;12.47;;
54807;SDS011;40708;50.364;7.550;2023-11-21T00:56:37;14.90;;;11.30;;
54807;SDS011;40708;50.364;7.550;2023-11-21T00:59:03;15.03;;;11.47;;
54807;SDS011;40708;50.364;7.550;2023-11-21T01:01:30;12.57;;;10.33;;
54807;SDS011;40708;50.364;7.550;2023-11-21T01:03:55;14.40;;;12.07;;
54807;SDS011;40708;50.364;7.550;2023-11-21T01:06:20;14.50;;;11.23;;
54807;SDS011;40708;50.364;7.550;2023-11-21T01:08:45;14.50;;;10.03;;
54807;SDS011;40708;50.364;7.550;2023-11-21T01:11:11;17.53;;;11.30;;
54807;SDS011;40708;50.364;7.550;2023-11-21T01:13:37;14.73;;;9.40;;
54807;SDS011;40708;50.364;7.550;2023-11-21T01:16:03;14.33;;;11.17;;
54807;SDS011;40708;50.364;7.550;2023-11-21T01:18:28;18.00;;;12.87;;
54807;SDS011;40708;50.364;7.550;2023-11-21T01:20:54;15.37;;;11.53;;
54807;SDS011;40708;50.364;7.550;2023-11-21T01:23:19;20.73;;;13.83;;
54807;SDS011;40708;50.364;7.550;2023-11-21T01:25:45;21.63;;;15.70;;
54807;SDS011;40708;50.364;7.550;2023-11-21T01:28:10;23.27;;;16.37;;
54807;SDS011;40708;50.364;7.550;2023-11-21T01:30:35;21.00;;;15.23;;
54807;SDS011;40708;50.364;7.550;2023-11-21T01:33:00;26.30;;;17.13;;
54807;SDS011;40708;50.364;7.550;2023-11-21T01:35:25;22.10;;;16.23;;
54807;SDS011;40708;50.364;7.550;2023-11-21T01:37:51;18.67;;;15.80;;
54807;SDS011;40708;50.364;7.550;2023-11-21T01:40:16;23.95;;;17.38;;
54807;SDS011;40708;50.364;7.550;2023-11-21T01:42:41;33.67;;;23.63;;
54807;SDS011;40708;50.364;7.550;2023-11-21T01:45:08;24.90;;;18.03;;
54807;SDS011;40708;50.364;7.550;2023-11-21T01:47:34;21.80;;;16.10;;
54807;SDS011;40708;50.364;7.550;2023-11-21T01:50:00;21.43;;;16.77;;
54807;SDS011;40708;50.364;7.550;2023-11-21T01:52:26;16.73;;;13.40;;
54807;SDS011;40708;50.364;7.550;2023-11-21T01:54:52;21.67;;;15.73;;
54807;SDS011;40708;50.364;7.550;2023-11-21T01:57:18;24.17;;;16.60;;
54807;SDS011;40708;50.364;7.550;2023-11-21T01:59:44;19.60;;;16.50;;
54807;SDS011;40708;50.364;7.550;2023-11-21T02:02:09;14.90;;;13.20;;
54807;SDS011;40708;50.364;7.550;2023-11-21T02:04:35;14.23;;;12.60;;
54807;SDS011;40708;50.364;7.550;2023-11-21T02:07:01;20.73;;;15.77;;
54807;SDS011;40708;50.364;7.550;2023-11-21T02:09:27;15.20;;;12.83;;
54807;SDS011;40708;50.364;7.550;2023-11-21T02:11:53;16.60;;;13.07;;
54807;SDS011;40708;50.364;7.550;2023-11-21T02:14:19;18.37;;;14.30;;
54807;SDS011;40708;50.364;7.550;2023-11-21T02:16:45;21.87;;;16.13;;
54807;SDS011;40708;50.364;7.550;2023-11-21T02:19:12;18.13;;;14.33;;
54807;SDS011;40708;50.364;7.550;2023-11-21T02:21:40;21.33;;;15.17;;
54807;SDS011;40708;50.364;7.550;2023-11-21T02:24:05;16.97;;;14.37;;
54807;SDS011;40708;50.364;7.550;2023-11-21T02:26:31;22.00;;;14.93;;
54807;SDS011;40708;50.364;7.550;2023-11-21T02:28:56;20.30;;;15.23;;
54807;SDS011;40708;50.364;7.550;2023-11-21T02:31:23;22.63;;;16.20;;
54807;SDS011;40708;50.364;7.550;2023-11-21T02:33:48;22.93;;;15.43;;
54807;SDS011;40708;50.364;7.550;2023-11-21T02:36:13;20.48;;;15.23;;
54807;SDS011;40708;50.364;7.550;2023-11-21T02:38:38;23.87;;;17.73;;
54807;SDS011;40708;50.364;7.550;2023-11-21T02:41:03;22.60;;;16.23;;
54807;SDS011;40708;50.364;7.550;2023-11-21T02:43:29;22.53;;;17.00;;
54807;SDS011;40708;50.364;7.550;2023-11-21T02:45:54;22.90;;;16.67;;
54807;SDS011;40708;50.364;7.550;2023-11-21T02:48:19;25.77;;;18.00;;
54807;SDS011;40708;50.364;7.550;2023-11-21T02:50:45;25.33;;;17.47;;
54807;SDS011;40708;50.364;7.550;2023-11-21T02:53:10;26.73;;;17.73;;
54807;SDS011;40708;50.364;7.550;2023-11-21T02:55:35;21.80;;;14.97;;
54807;SDS011;40708;50.364;7.550;2023-11-21T02:58:01;23.43;;;15.20;;
54807;SDS011;40708;50.364;7.550;2023-11-21T03:00:26;19.93;;;14.77;;
54807;SDS011;40708;50.364;7.550;2023-11-21T03:02:51;19.20;;;13.57;;
54807;SDS011;40708;50.364;7.550;2023-11-21T03:05:16;21.23;;;15.67;;
54807;SDS011;40708;50.364;7.550;2023-11-21T03:07:41;20.47;;;13.90;;
54807;SDS011;40708;50.364;7.550;2023-11-21T03:10:07;16.87;;;12.93;;
54807;SDS011;40708;50.364;7.550;2023-11-21T03:12:34;14.00;;;11.00;;
54807;SDS011;40708;50.364;7.550;2023-11-21T03:14:59;13.33;;;10.47;;
54807;SDS011;40708;50.364;7.550;2023-11-21T03:17:24;14.90;;;11.33;;
54807;SDS011;40708;50.364;7.550;2023-11-21T03:19:49;11.93;;;9.90;;
54807;SDS011;40708;50.364;7.550;2023-11-21T03:22:14;11.87;;;10.30;;
54807;SDS011;40708;50.364;7.550;2023-11-21T03:24:40;15.17;;;11.17;;
54807;SDS011;40708;50.364;7.550;2023-11-21T03:27:05;14.00;;;10.73;;
54807;SDS011;40708;50.364;7.550;2023-11-21T03:29:30;14.43;;;10.73;;
54807;SDS011;40708;50.364;7.550;2023-11-21T03:31:55;17.37;;;11.53;;
54807;SDS011;40708;50.364;7.550;2023-11-21T03:34:24;13.43;;;9.80;;
54807;SDS011;40708;50.364;7.550;2023-11-21T03:36:50;14.13;;;10.27;;
54807;SDS011;40708;50.364;7.550;2023-11-21T03:39:16;11.87;;;9.77;;
54807;SDS011;40708;50.364;7.550;2023-11-21T03:41:41;16.77;;;10.57;;
54807;SDS011;40708;50.364;7.550;2023-11-21T03:44:06;11.20;;;9.37;;
54807;SDS011;40708;50.364;7.550;2023-11-21T03:46:31;12.47;;;10.13;;
54807;SDS011;40708;50.364;7.550;2023-11-21T03:48:56;13.63;;;9.80;;
54807;SDS011;40708;50.364;7.550;2023-11-21T03:51:22;12.50;;;9.47;;
54807;SDS011;40708;50.364;7.550;2023-11-21T03:53:47;14.43;;;12.53;;
54807;SDS011;40708;50.364;7.550;2023-11-21T03:56:13;14.32;;;12.20;;
54807;SDS011;40708;50.364;7.550;2023-11-21T03:58:38;17.73;;;12.97;;
54807;SDS011;40708;50.364;7.550;2023-11-21T04:01:03;18.33;;;13.30;;
54807;SDS011;40708;50.364;7.550;2023-11-21T04:03:28;25.87;;;15.23;;
54807;SDS011;40708;50.364;7.550;2023-11-21T04:05:54;21.30;;;15.57;;
54807;SDS011;40708;50.364;7.550;2023-11-21T04:08:20;17.57;;;15.03;;
54807;SDS011;40708;50.364;7.550;2023-11-21T04:10:45;23.30;;;17.57;;
54807;SDS011;40708;50.364;7.550;2023-11-21T04:13:10;19.47;;;15.87;;
54807;SDS011;40708;50.364;7.550;2023-11-21T04:15:35;23.03;;;16.73;;
54807;SDS011;40708;50.364;7.550;2023-11-21T04:18:00;24.27;;;19.17;;
54807;SDS011;40708;50.364;7.550;2023-11-21T04:20:25;22.20;;;17.58;;
54807;SDS011;40708;50.364;7.550;2023-11-21T04:22:51;29.83;;;20.03;;
54807;SDS011;40708;50.364;7.550;2023-11-21T04:25:16;25.37;;;18.90;;
54807;SDS011;40708;50.364;7.550;2023-11-21T04:27:42;22.30;;;16.73;;
54807;SDS011;40708;50.364;7.550;2023-11-21T04:30:10;26.40;;;18.40;;
54807;SDS011;40708;50.364;7.550;2023-11-21T04:32:36;21.43;;;16.00;;
54807;SDS011;40708;50.364;7.550;2023-11-21T04:35:01;19.90;;;15.63;;
54807;SDS011;40708;50.364;7.550;2023-11-21T04:37:26;20.33;;;14.73;;
54807;SDS011;40708;50.364;7.550;2023-11-21T04:39:51;15.87;;;13.37;;
54807;SDS011;40708;50.364;7.550;2023-11-21T04:42:17;17.63;;;13.40;;
54807;SDS011;40708;50.364;7.550;2023-11-21T04:44:42;14.40;;;12.07;;
54807;SDS011;40708;50.364;7.550;2023-11-21T04:47:08;13.43;;;11.20;;
54807;SDS011;40708;50.364;7.550;2023-11-21T04:49:34;16.77;;;11.83;;
54807;SDS011;40708;50.364;7.550;2023-11-21T04:51:59;16.27;;;11.13;;
54807;SDS011;40708;50.364;7.550;2023-11-21T04:54:24;12.87;;;10.97;;
54807;SDS011;40708;50.364;7.550;2023-11-21T04:56:49;14.90;;;11.10;;
54807;SDS011;40708;50.364;7.550;2023-11-21T04:59:14;14.23;;;11.60;;
54807;SDS011;40708;50.364;7.550;2023-11-21T05:01:39;14.03;;;11.67;;
54807;SDS011;40708;50.364;7.550;2023-11-21T05:04:05;16.33;;;12.07;;
54807;SDS011;40708;50.364;7.550;2023-11-21T05:06:31;15.63;;;11.87;;
54807;SDS011;40708;50.364;7.550;2023-11-21T05:08:56;12.93;;;10.80;;
54807;SDS011;40708;50.364;7.550;2023-11-21T05:11:25;14.70;;;11.53;;
54807;SDS011;40708;50.364;7.550;2023-11-21T05:13:50;14.60;;;10.47;;
54807;SDS011;40708;50.364;7.550;2023-11-21T05:16:15;12.67;;;10.93;;
54807;SDS011;40708;50.364;7.550;2023-11-21T05:18:40;13.80;;;11.53;;
54807;SDS011;40708;50.364;7.550;2023-11-21T05:21:05;12.87;;;10.37;;
54807;SDS011;40708;50.364;7.550;2023-11-21T05:23:30;12.77;;;9.73;;
54807;SDS011;40708;50.364;7.550;2023-11-21T05:25:56;12.55;;;10.10;;
54807;SDS011;40708;50.364;7.550;2023-11-21T05:28:22;13.73;;;9.87;;
54807;SDS011;40708;50.364;7.550;2023-11-21T05:30:47;11.60;;;9.38;;
54807;SDS011;40708;50.364;7.550;2023-11-21T05:33:12;15.27;;;10.80;;
54807;SDS011;40708;50.364;7.550;2023-11-21T05:35:37;13.10;;;10.47;;
54807;SDS011;40708;50.364;7.550;2023-11-21T05:38:02;14.10;;;10.17;;
54807;SDS011;40708;50.364;7.550;2023-11-21T05:40:27;13.77;;;11.03;;
54807;SDS011;40708;50.364;7.550;2023-11-21T05:42:55;12.40;;;10.63;;
54807;SDS011;40708;50.364;7.550;2023-11-21T05:45:20;12.20;;;10.27;;
54807;SDS011;40708;50.364;7.550;2023-11-21T05:47:46;13.43;;;10.60;;
54807;SDS011;40708;50.364;7.550;2023-11-21T05:50:12;11.73;;;9.53;;
54807;SDS011;40708;50.364;7.550;2023-11-21T05:52:39;13.67;;;10.43;;
54807;SDS011;40708;50.364;7.550;2023-11-21T05:55:05;13.30;;;10.17;;
54807;SDS011;40708;50.364;7.550;2023-11-21T05:57:32;13.93;;;11.07;;
54807;SDS011;40708;50.364;7.550;2023-11-21T05:59:57;11.57;;;9.80;;
54807;SDS011;40708;50.364;7.550;2023-11-21T06:02:23;17.20;;;12.10;;
54807;SDS011;40708;50.364;7.550;2023-11-21T06:04:48;15.03;;;11.40;;
54807;SDS011;40708;50.364;7.550;2023-11-21T06:07:13;15.77;;;10.85;;
54807;SDS011;40708;50.364;7.550;2023-11-21T06:09:39;14.40;;;10.87;;
54807;SDS011;40708;50.364;7.550;2023-11-21T06:12:04;15.07;;;11.23;;
54807;SDS011;40708;50.364;7.550;2023-11-21T06:14:30;13.53;;;10.67;;
54807;SDS011;40708;50.364;7.550;2023-11-21T06:16:58;15.30;;;10.87;;
54807;SDS011;40708;50.364;7.550;2023-11-21T06:19:23;12.82;;;10.82;;
54807;SDS011;40708;50.364;7.550;2023-11-21T06:21:48;16.57;;;11.50;;
54807;SDS011;40708;50.364;7.550;2023-11-21T06:24:14;13.30;;;11.07;;
54807;SDS011;40708;50.364;7.550;2023-11-21T06:26:40;17.67;;;12.87;;
54807;SDS011;40708;50.364;7.550;2023-11-21T06:29:06;17.57;;;12.70;;
54807;SDS011;40708;50.364;7.550;2023-11-21T06:31:32;18.90;;;13.43;;
54807;SDS011;40708;50.364;7.550;2023-11-21T06:33:57;19.97;;;12.97;;
54807;SDS011;40708;50.364;7.550;2023-11-21T06:36:24;19.13;;;14.20;;
54807;SDS011;40708;50.364;7.550;2023-11-21T06:38:50;21.33;;;15.53;;
54807;SDS011;40708;50.364;7.550;2023-11-21T06:41:15;19.50;;;15.17;;
54807;SDS011;40708;50.364;7.550;2023-11-21T06:43:40;17.73;;;14.23;;
54807;SDS011;40708;50.364;7.550;2023-11-21T06:46:05;21.00;;;15.07;;
54807;SDS011;40708;50.364;7.550;2023-11-21T06:48:30;22.97;;;16.37;;
54807;SDS011;40708;50.364;7.550;2023-11-21T06:50:56;23.90;;;18.20;;
54807;SDS011;40708;50.364;7.550;2023-11-21T06:53:21;28.93;;;20.63;;
54807;SDS011;40708;50.364;7.550;2023-11-21T06:55:46;24.60;;;16.67;;
54807;SDS011;40708;50.364;7.550;2023-11-21T06:58:11;26.13;;;18.77;;
54807;SDS011;40708;50.364;7.550;2023-11-21T07:00:36;25.67;;;17.83;;
54807;SDS011;40708;50.364;7.550;2023-11-21T07:03:02;25.70;;;20.20;;
54807;SDS011;40708;50.364;7.550;2023-11-21T07:05:27;26.67;;;20.03;;
54807;SDS011;40708;50.364;7.550;2023-11-21T07:07:52;30.37;;;19.93;;
54807;SDS011;40708;50.364;7.550;2023-11-21T07:10:19;27.03;;;19.53;;
54807;SDS011;40708;50.364;7.550;2023-11-21T07:12:44;27.97;;;22.70;;
54807;SDS011;40708;50.364;7.550;2023-11-21T07:15:09;28.70;;;22.07;;
54807;SDS011;40708;50.364;7.550;2023-11-21T07:17:35;28.57;;;22.57;;
54807;SDS011;40708;50.364;7.550;2023-11-21T07:20:00;29.07;;;21.47;;
54807;SDS011;40708;50.364;7.550;2023-11-21T07:22:26;32.53;;;24.07;;
54807;SDS011;40708;50.364;7.550;2023-11-21T07:24:51;33.63;;;24.17;;
54807;SDS011;40708;50.364;7.550;2023-11-21T07:27:16;32.83;;;24.60;;
54807;SDS011;40708;50.364;7.550;2023-11-21T07:29:42;26.13;;;20.67;;
54807;SDS011;40708;50.364;7.550;2023-11-21T07:32:07;30.43;;;22.57;;
54807;SDS011;40708;50.364;7.550;2023-11-21T07:34:34;30.77;;;22.27;;
54807;SDS011;40708;50.364;7.550;2023-11-21T07:36:59;31.57;;;24.17;;
54807;SDS011;40708;50.364;7.550;2023-11-21T07:39:24;37.43;;;25.83;;
54807;SDS011;40708;50.364;7.550;2023-11-21T07:41:50;29.70;;;22.43;;
54807;SDS011;40708;50.364;7.550;2023-11-21T07:44:16;34.40;;;22.67;;
54807;SDS011;40708;50.364;7.550;2023-11-21T07:46:42;31.50;;;22.20;;
54807;SDS011;40708;50.364;7.550;2023-11-21T07:49:07;32.07;;;24.37;;
54807;SDS011;40708;50.364;7.550;2023-11-21T07:51:32;34.47;;;22.43;;
54807;SDS011;40708;50.364;7.550;2023-11-21T07:53:58;33.40;;;23.47;;
54807;SDS011;40708;50.364;7.550;2023-11-21T07:56:23;30.60;;;22.20;;
54807;SDS011;40708;50.364;7.550;2023-11-21T07:58:48;32.30;;;24.00;;
54807;SDS011;40708;50.364;7.550;2023-11-21T08:01:15;31.57;;;22.83;;
54807;SDS011;40708;50.364;7.550;2023-11-21T08:03:40;33.67;;;23.63;;
54807;SDS011;40708;50.364;7.550;2023-11-21T08:06:05;33.37;;;23.07;;
54807;SDS011;40708;50.364;7.550;2023-11-21T08:08:30;32.07;;;21.73;;
54807;SDS011;40708;50.364;7.550;2023-11-21T08:10:57;28.33;;;20.50;;
54807;SDS011;40708;50.364;7.550;2023-11-21T08:13:22;27.93;;;20.87;;
54807;SDS011;40708;50.364;7.550;2023-11-21T08:15:48;28.77;;;21.90;;
54807;SDS011;40708;50.364;7.550;2023-11-21T08:18:13;29.17;;;21.87;;
54807;SDS011;40708;50.364;7.550;2023-11-21T08:20:39;29.33;;;21.80;;
54807;SDS011;40708;50.364;7.550;2023-11-21T08:23:05;29.03;;;22.20;;
54807;SDS011;40708;50.364;7.550;2023-11-21T08:25:30;33.40;;;23.47;;
54807;SDS011;40708;50.364;7.550;2023-11-21T08:27:56;30.47;;;21.60;;
54807;SDS011;40708;50.364;7.550;2023-11-21T08:30:21;34.20;;;24.20;;
54807;SDS011;40708;50.364;7.550;2023-11-21T08:32:49;28.57;;;21.53;;
54807;SDS011;40708;50.364;7.550;2023-11-21T08:35:14;36.30;;;22.97;;
54807;SDS011;40708;50.364;7.550;2023-11-21T08:37:40;30.57;;;23.50;;
54807;SDS011;40708;50.364;7.550;2023-11-21T08:40:06;39.13;;;25.73;;
54807;SDS011;40708;50.364;7.550;2023-11-21T08:42:37;32.90;;;24.50;;
54807;SDS011;40708;50.364;7.550;2023-11-21T08:45:02;34.03;;;24.90;;
54807;SDS011;40708;50.364;7.550;2023-11-21T08:47:27;33.57;;;25.30;;
54807;SDS011;40708;50.364;7.550;2023-11-21T08:49:53;34.67;;;24.27;;
54807;SDS011;40708;50.364;7.550;2023-11-21T08:52:18;28.30;;;21.33;;
54807;SDS011;40708;50.364;7.550;2023-11-21T08:54:43;31.50;;;22.63;;
54807;SDS011;40708;50.364;7.550;2023-11-21T08:57:10;30.53;;;22.27;;
54807;SDS011;40708;50.364;7.550;2023-11-21T08:59:35;31.73;;;25.17;;
54807;SDS011;40708;50.364;7.550;2023-11-21T09:02:00;34.92;;;24.85;;
54807;SDS011;40708;50.364;7.550;2023-11-21T09:04:25;30.80;;;23.13;;
54807;SDS011;40708;50.364;7.550;2023-11-21T09:06:51;35.60;;;24.70;;
54807;SDS011;40708;50.364;7.550;2023-11-21T09:09:16;28.70;;;22.53;;
54807;SDS011;40708;50.364;7.550;2023-11-21T09:11:41;32.93;;;23.23;;
54807;SDS011;40708;50.364;7.550;2023-11-21T09:14:09;31.37;;;23.23;;
54807;SDS011;40708;50.364;7.550;2023-11-21T09:16:35;31.30;;;24.97;;
54807;SDS011;40708;50.364;7.550;2023-11-21T09:19:00;28.47;;;23.03;;
54807;SDS011;40708;50.364;7.550;2023-11-21T09:21:25;34.80;;;24.73;;
54807;SDS011;40708;50.364;7.550;2023-11-21T09:23:50;33.23;;;23.93;;
54807;SDS011;40708;50.364;7.550;2023-11-21T09:26:16;28.43;;;22.07;;
54807;SDS011;40708;50.364;7.550;2023-11-21T09:28:43;33.77;;;24.80;;
54807;SDS011;40708;50.364;7.550;2023-11-21T09:31:12;31.30;;;23.23;;
54807;SDS011;40708;50.364;7.550;2023-11-21T09:33:37;30.30;;;23.03;;
54807;SDS011;40708;50.364;7.550;2023-11-21T09:36:03;27.13;;;21.67;;
54807;SDS011;40708;50.364;7.550;2023-11-21T09:38:29;26.80;;;21.73;;
54807;SDS011;40708;50.364;7.550;2023-11-21T09:40:54;33.45;;;22.08;;
54807;SDS011;40708;50.364;7.550;2023-11-21T09:43:20;33.77;;;24.60;;
54807;SDS011;40708;50.364;7.550;2023-11-21T09:45:46;29.20;;;21.33;;
54807;SDS011;40708;50.364;7.550;2023-11-21T09:48:12;26.97;;;21.57;;
54807;SDS011;40708;50.364;7.550;2023-11-21T09:50:39;26.90;;;18.80;;
54807;SDS011;40708;50.364;7.550;2023-11-21T09:53:17;23.10;;;18.67;;
54807;SDS011;40708;50.364;7.550;2023-11-21T09:55:43;26.70;;;19.80;;
54807;SDS011;40708;50.364;7.550;2023-11-21T09:58:09;26.67;;;18.80;;
54807;SDS011;40708;50.364;7.550;2023-11-21T10:00:37;22.70;;;18.17;;
54807;SDS011;40708;50.364;7.550;2023-11-21T10:03:03;24.63;;;18.40;;
54807;SDS011;40708;50.364;7.550;2023-11-21T10:05:29;24.27;;;18.20;;
54807;SDS011;40708;50.364;7.550;2023-11-21T10:07:54;26.20;;;18.43;;
54807;SDS011;40708;50.364;7.550;2023-11-21T10:10:22;25.17;;;17.53;;
54807;SDS011;40708;50.364;7.550;2023-11-21T10:12:49;27.87;;;18.93;;
54807;SDS011;40708;50.364;7.550;2023-11-21T10:15:16;26.87;;;19.90;;
54807;SDS011;40708;50.364;7.550;2023-11-21T10:17:41;26.77;;;17.67;;
54807;SDS011;40708;50.364;7.550;2023-11-21T10:20:13;22.63;;;17.33;;
54807;SDS011;40708;50.364;7.550;2023-11-21T10:22:39;23.33;;;16.80;;
54807;SDS011;40708;50.364;7.550;2023-11-21T10:25:06;20.43;;;16.43;;
54807;SDS011;40708;50.364;7.550;2023-11-21T10:27:33;23.77;;;18.73;;
54807;SDS011;40708;50.364;7.550;2023-11-21T10:29:58;20.33;;;15.90;;
54807;SDS011;40708;50.364;7.550;2023-11-21T10:32:28;21.83;;;14.73;;
54807;SDS011;40708;50.364;7.550;2023-11-21T10:34:56;20.80;;;14.50;;
54807;SDS011;40708;50.364;7.550;2023-11-21T10:37:22;18.93;;;14.40;;
54807;SDS011;40708;50.364;7.550;2023-11-21T10:39:47;22.20;;;16.10;;
54807;SDS011;40708;50.364;7.550;2023-11-21T10:42:12;24.50;;;16.10;;
54807;SDS011;40708;50.364;7.550;2023-11-21T10:44:37;25.23;;;17.93;;
54807;SDS011;40708;50.364;7.550;2023-11-21T10:47:02;22.40;;;16.00;;
54807;SDS011;40708;50.364;7.550;2023-11-21T10:49:28;23.17;;;16.50;;
54807;SDS011;40708;50.364;7.550;2023-11-21T10:51:54;27.30;;;18.50;;
54807;SDS011;40708;50.364;7.550;2023-11-21T10:54:19;25.37;;;17.40;;
54807;SDS011;40708;50.364;7.550;2023-11-21T10:56:45;26.73;;;18.70;;
54807;SDS011;40708;50.364;7.550;2023-11-21T10:59:12;22.67;;;16.33;;
54807;SDS011;40708;50.364;7.550;2023-11-21T11:01:39;22.17;;;17.47;;
54807;SDS011;40708;50.364;7.550;2023-11-21T11:04:05;23.67;;;17.00;;
54807;SDS011;40708;50.364;7.550;2023-11-21T11:06:31;22.83;;;17.03;;
54807;SDS011;40708;50.364;7.550;2023-11-21T11:08:57;21.03;;;16.27;;
54807;SDS011;40708;50.364;7.550;2023-11-21T11:11:23;23.70;;;16.87;;
54807;SDS011;40708;50.364;7.550;2023-11-21T11:13:49;27.53;;;18.90;;
54807;SDS011;40708;50.364;7.550;2023-11-21T11:16:15;21.70;;;15.30;;
54807;SDS011;40708;50.364;7.550;2023-11-21T11:18:42;20.87;;;15.57;;
54807;SDS011;40708;50.364;7.550;2023-11-21T11:21:16;19.33;;;14.53;;
54807;SDS011;40708;50.364;7.550;2023-11-21T11:29:01;24.00;;;15.97;;
54807;SDS011;40708;50.364;7.550;2023-11-21T11:36:47;23.93;;;17.67;;
54807;SDS011;40708;50.364;7.550;2023-11-21T11:39:29;29.27;;;20.20;;
54807;SDS011;40708;50.364;7.550;2023-11-21T11:41:58;25.23;;;18.30;;
54807;SDS011;40708;50.364;7.550;2023-11-21T11:47:18;19.30;;;14.10;;
54807;SDS011;40708;50.364;7.550;2023-11-21T11:50:00;21.57;;;14.03;;
54807;SDS011;40708;50.364;7.550;2023-11-21T11:52:34;18.20;;;13.90;;
54807;SDS011;40708;50.364;7.550;2023-11-21T11:55:00;23.63;;;16.77;;
54807;SDS011;40708;50.364;7.550;2023-11-21T11:57:25;18.33;;;15.40;;
54807;SDS011;40708;50.364;7.550;2023-11-21T12:02:52;22.40;;;16.83;;
54807;SDS011;40708;50.364;7.550;2023-11-21T12:05:18;22.53;;;17.07;;
54807;SDS011;40708;50.364;7.550;2023-11-21T12:07:44;24.43;;;17.30;;
54807;SDS011;40708;50.364;7.550;2023-11-21T12:10:14;17.23;;;14.27;;
54807;SDS011;40708;50.364;7.550;2023-11-21T12:12:43;18.90;;;14.43;;
54807;SDS011;40708;50.364;7.550;2023-11-21T12:15:09;19.57;;;14.77;;
54807;SDS011;40708;50.364;7.550;2023-11-21T12:17:34;19.30;;;14.53;;
54807;SDS011;40708;50.364;7.550;2023-11-21T12:20:03;19.10;;;13.33;;
54807;SDS011;40708;50.364;7.550;2023-11-21T12:22:39;17.10;;;14.27;;
54807;SDS011;40708;50.364;7.550;2023-11-21T12:25:04;19.20;;;14.57;;
54807;SDS011;40708;50.364;7.550;2023-11-21T12:27:29;18.23;;;13.97;;
54807;SDS011;40708;50.364;7.550;2023-11-21T12:29:55;16.43;;;12.77;;
54807;SDS011;40708;50.364;7.550;2023-11-21T12:32:21;20.67;;;13.63;;
54807;SDS011;40708;50.364;7.550;2023-11-21T12:34:46;18.03;;;14.17;;
54807;SDS011;40708;50.364;7.550;2023-11-21T12:37:11;14.60;;;12.20;;
54807;SDS011;40708;50.364;7.550;2023-11-21T12:39:37;16.70;;;13.47;;
54807;SDS011;40708;50.364;7.550;2023-11-21T12:42:02;15.93;;;13.25;;
54807;SDS011;40708;50.364;7.550;2023-11-21T12:44:28;17.67;;;13.07;;
54807;SDS011;40708;50.364;7.550;2023-11-21T12:46:54;19.10;;;12.43;;
54807;SDS011;40708;50.364;7.550;2023-11-21T12:49:20;16.87;;;13.37;;
54807;SDS011;40708;50.364;7.550;2023-11-21T12:51:47;20.17;;;13.67;;
54807;SDS011;40708;50.364;7.550;2023-11-21T12:54:12;17.27;;;12.97;;
54807;SDS011;40708;50.364;7.550;2023-11-21T12:56:38;17.33;;;13.17;;
54807;SDS011;40708;50.364;7.550;2023-11-21T12:59:03;15.30;;;11.77;;
54807;SDS011;40708;50.364;7.550;2023-11-21T13:01:29;16.43;;;12.30;;
54807;SDS011;40708;50.364;7.550;2023-11-21T13:03:57;17.37;;;12.00;;
54807;SDS011;40708;50.364;7.550;2023-11-21T13:06:22;18.97;;;13.07;;
54807;SDS011;40708;50.364;7.550;2023-11-21T13:08:50;17.90;;;12.23;;
54807;SDS011;40708;50.364;7.550;2023-11-21T13:11:15;19.43;;;14.57;;
54807;SDS011;40708;50.364;7.550;2023-11-21T13:13:42;20.60;;;13.63;;
54807;SDS011;40708;50.364;7.550;2023-11-21T13:16:08;17.00;;;12.90;;
54807;SDS011;40708;50.364;7.550;2023-11-21T13:18:34;19.73;;;13.07;;
54807;SDS011;40708;50.364;7.550;2023-11-21T13:21:01;18.15;;;13.77;;
54807;SDS011;40708;50.364;7.550;2023-11-21T13:23:28;19.57;;;14.03;;
54807;SDS011;40708;50.364;7.550;2023-11-21T13:25:54;21.67;;;13.43;;
54807;SDS011;40708;50.364;7.550;2023-11-21T13:28:20;18.07;;;14.10;;
54807;SDS011;40708;50.364;7.550;2023-11-21T13:30:46;16.40;;;14.07;;
54807;SDS011;40708;50.364;7.550;2023-11-21T13:33:13;19.20;;;14.30;;
54807;SDS011;40708;50.364;7.550;2023-11-21T13:35:46;21.97;;;13.63;;
54807;SDS011;40708;50.364;7.550;2023-11-21T13:38:17;18.27;;;14.43;;
54807;SDS011;40708;50.364;7.550;2023-11-21T13:40:46;17.27;;;13.73;;
54807;SDS011;40708;50.364;7.550;2023-11-21T13:43:12;19.37;;;13.63;;
54807;SDS011;40708;50.364;7.550;2023-11-21T13:45:37;20.83;;;14.57;;
54807;SDS011;40708;50.364;7.550;2023-11-21T13:48:04;19.43;;;14.10;;
54807;SDS011;40708;50.364;7.550;2023-11-21T13:50:33;17.13;;;13.97;;
54807;SDS011;40708;50.364;7.550;2023-11-21T13:52:59;19.27;;;13.27;;
54807;SDS011;40708;50.364;7.550;2023-11-21T13:55:28;18.40;;;13.20;;
54807;SDS011;40708;50.364;7.550;2023-11-21T13:57:53;21.60;;;14.83;;
54807;SDS011;40708;50.364;7.550;2023-11-21T14:00:19;18.88;;;12.18;;
54807;SDS011;40708;50.364;7.550;2023-11-21T14:03:04;17.53;;;12.57;;
54807;SDS011;40708;50.364;7.550;2023-11-21T14:05:34;21.33;;;13.80;;
54807;SDS011;40708;50.364;7.550;2023-11-21T14:07:59;18.83;;;11.73;;
54807;SDS011;40708;50.364;7.550;2023-11-21T14:10:31;18.00;;;13.50;;
54807;SDS011;40708;50.364;7.550;2023-11-21T14:13:07;15.17;;;12.40;;
54807;SDS011;40708;50.364;7.550;2023-11-21T14:15:32;20.37;;;13.10;;
54807;SDS011;40708;50.364;7.550;2023-11-21T14:18:02;13.60;;;11.90;;
54807;SDS011;40708;50.364;7.550;2023-11-21T14:20:31;17.20;;;13.43;;
54807;SDS011;40708;50.364;7.550;2023-11-21T14:22:56;19.93;;;13.47;;
54807;SDS011;40708;50.364;7.550;2023-11-21T14:25:21;15.17;;;12.10;;
54807;SDS011;40708;50.364;7.550;2023-11-21T14:27:47;16.27;;;12.87;;
54807;SDS011;40708;50.364;7.550;2023-11-21T14:30:12;16.80;;;13.03;;
54807;SDS011;40708;50.364;7.550;2023-11-21T14:32:38;18.73;;;12.70;;